Huvudsida
METAR-TAF:

METAR-TAF

Flygplatser :

Chengdu Shuangliu International Airport

Chengdu, Kina

latitud: 30-40N, longitud: 104-01E, höjd: 508 m

Aktuellt väderrapport

Denna rapport gjordes för 37 minuter sedan, klockan 09:00 UTC
Vind 6 kt från syd/sydväst
Temperatur 26°C
Fuktighet 48%
Tryck 1016 hPa
Sikt 10 km eller mer
Inga moln under 1 500 m eller inga cumulonimbus

METAR: ZUUU 220900Z 21003MPS CAVOK 26/14 Q1016 NOSIG

Tid: 17:37 (09:37 UTC)

Väderprognos

Denna rapport gjordes för 7 timmar och 28 minuter sedan, klockan 02:09 UTC
Prognos gäller från 22 kl. 06 UTC till 23 kl. 06 UTC
Vind 6 kt från syd/sydväst
Sikt: 5000 m
Spridda moln på en höjd av 5000 ft
fuktdis

TAF: ZUUU 220209Z 2206/2306 20003MPS 5000 BR SCT050 TX24/2207Z TN16/2223Z

Aktuella väderrapporter och prognoser från 4000 flygplatser (METAR- och TAF-rapporter).

De tillgängliga stationerna syns som gula och röda prickar på kartan.

För musen över prickarna för att se namnen på stationerna.

Klicka sedan för att få väderrapporter och prognoser.

För att ändra kartan: Klicka på de gröna knapparna med ett svart kors på för att zooma in; den gröna knappen med ett streck på för att zooma ut; eller på de gröna pilarna för angränsande kartor.


METAR-TAF: